createdAt,value
2023-08-07T00:02:16.274Z,82.70
2023-08-07T00:04:43.404Z,82.50
2023-08-07T00:07:10.506Z,82.30
2023-08-07T00:09:37.763Z,82.20
2023-08-07T00:12:05.117Z,82.20
2023-08-07T00:14:32.261Z,82.30
2023-08-07T00:16:59.395Z,82.10
2023-08-07T00:19:26.557Z,82.20
2023-08-07T00:21:54.093Z,82.20
2023-08-07T00:24:21.460Z,81.80
2023-08-07T00:26:48.551Z,81.90
2023-08-07T00:29:15.627Z,81.40
2023-08-07T00:31:42.755Z,81.50
2023-08-07T00:34:10.852Z,81.70
2023-08-07T00:36:38.074Z,81.20
2023-08-07T00:39:05.330Z,81.50
2023-08-07T00:41:32.501Z,80.80
2023-08-07T00:43:59.755Z,81.20
2023-08-07T00:46:28.417Z,80.60
2023-08-07T00:48:55.964Z,80.80
2023-08-07T00:51:24.503Z,80.50
2023-08-07T00:53:51.867Z,80.30
2023-08-07T00:56:19.169Z,80.30
2023-08-07T00:58:46.470Z,80.40
2023-08-07T01:01:13.810Z,79.80
2023-08-07T01:03:40.960Z,80.10
2023-08-07T01:06:08.424Z,80.00
2023-08-07T01:08:36.882Z,80.00
2023-08-07T01:11:12.066Z,79.40
2023-08-07T01:13:52.497Z,79.80
2023-08-07T01:16:27.563Z,79.60
2023-08-07T01:18:56.155Z,79.50
2023-08-07T01:21:23.243Z,79.20
2023-08-07T01:23:50.468Z,79.10
2023-08-07T01:26:22.659Z,79.00
2023-08-07T01:29:25.057Z,78.90
2023-08-07T01:31:54.585Z,79.20
2023-08-07T01:34:25.122Z,78.60
2023-08-07T01:36:53.797Z,79.00
2023-08-07T01:39:21.567Z,79.00
2023-08-07T01:41:50.540Z,78.60
2023-08-07T01:44:17.721Z,78.70
2023-08-07T01:46:44.945Z,78.90
2023-08-07T01:49:12.129Z,78.60
2023-08-07T01:51:39.240Z,78.40
2023-08-07T01:54:06.354Z,77.90
2023-08-07T01:56:33.527Z,78.20
2023-08-07T01:59:00.738Z,78.00
2023-08-07T02:01:27.920Z,78.10
2023-08-07T02:03:55.059Z,77.90
2023-08-07T02:06:22.254Z,78.70
2023-08-07T02:08:49.413Z,77.60
2023-08-07T02:11:17.722Z,77.80
2023-08-07T02:13:44.792Z,77.30
2023-08-07T02:16:11.915Z,77.00
2023-08-07T02:18:39.024Z,77.50
2023-08-07T02:21:06.184Z,77.30
2023-08-07T02:23:33.290Z,77.90
2023-08-07T02:26:00.446Z,77.10
2023-08-07T02:28:27.593Z,77.30
2023-08-07T02:30:55.516Z,77.50
2023-08-07T02:33:22.709Z,77.30
2023-08-07T02:35:52.301Z,77.10
2023-08-07T02:38:19.369Z,77.20
2023-08-07T02:40:46.496Z,77.30
2023-08-07T02:43:13.705Z,76.60
2023-08-07T02:45:40.947Z,76.20
2023-08-07T02:48:08.543Z,76.50
2023-08-07T02:50:36.951Z,76.40
2023-08-07T02:53:04.159Z,76.70
2023-08-07T02:55:31.263Z,75.90
2023-08-07T02:57:58.369Z,76.10
2023-08-07T03:00:25.475Z,76.30
2023-08-07T03:02:53.092Z,76.70
2023-08-07T03:05:20.312Z,76.30
2023-08-07T03:07:47.654Z,76.10
2023-08-07T03:10:14.872Z,76.30
2023-08-07T03:12:42.735Z,76.10
2023-08-07T03:15:11.161Z,76.00
2023-08-07T03:17:38.334Z,76.30
2023-08-07T03:20:06.236Z,76.30
2023-08-07T03:22:33.558Z,75.80
2023-08-07T03:25:00.737Z,76.10
2023-08-07T03:27:27.990Z,75.60
2023-08-07T03:29:55.257Z,75.80
2023-08-07T03:32:22.367Z,75.40
2023-08-07T03:34:49.494Z,75.60
2023-08-07T03:37:16.624Z,75.80
2023-08-07T03:39:44.836Z,75.60
2023-08-07T03:42:12.020Z,75.90
2023-08-07T03:44:39.230Z,75.20
2023-08-07T03:47:06.534Z,75.10
2023-08-07T03:49:33.780Z,74.70
2023-08-07T03:52:00.866Z,74.90
2023-08-07T03:54:28.004Z,74.20
2023-08-07T03:56:55.497Z,74.20
2023-08-07T03:59:22.812Z,74.30
2023-08-07T04:01:49.952Z,73.60
2023-08-07T04:04:17.107Z,74.60
2023-08-07T04:06:45.176Z,73.20
2023-08-07T04:09:12.309Z,73.70
2023-08-07T04:11:39.451Z,72.50
2023-08-07T04:14:06.894Z,72.50
2023-08-07T04:16:34.029Z,73.30
2023-08-07T04:19:01.154Z,71.80
2023-08-07T04:21:28.357Z,71.70
2023-08-07T04:23:55.582Z,72.30
2023-08-07T04:26:22.925Z,71.40
2023-08-07T04:28:50.025Z,71.60
2023-08-07T04:31:17.211Z,71.80
2023-08-07T04:33:44.582Z,70.60
2023-08-07T04:36:11.759Z,70.60
2023-08-07T04:38:38.933Z,70.90
2023-08-07T04:41:06.047Z,71.70
2023-08-07T04:43:33.543Z,70.50
2023-08-07T04:46:01.466Z,71.10
2023-08-07T04:48:28.601Z,70.40
2023-08-07T04:50:56.895Z,70.00
2023-08-07T04:53:24.139Z,69.80
2023-08-07T04:55:51.301Z,69.80
2023-08-07T04:58:18.497Z,69.70
2023-08-07T05:00:45.657Z,69.50
2023-08-07T05:03:13.057Z,69.50
2023-08-07T05:05:40.249Z,69.80
2023-08-07T05:08:07.360Z,69.20
2023-08-07T05:10:34.494Z,68.60
2023-08-07T05:13:01.606Z,68.80
2023-08-07T05:15:29.760Z,69.20
2023-08-07T05:17:56.964Z,67.70
2023-08-07T05:20:24.252Z,67.20
2023-08-07T05:22:51.647Z,67.20
2023-08-07T05:25:19.570Z,68.20
2023-08-07T05:27:47.908Z,67.50
2023-08-07T05:30:15.850Z,66.90
2023-08-07T05:32:43.319Z,66.70
2023-08-07T05:35:10.853Z,67.60
2023-08-07T05:37:38.189Z,67.60
2023-08-07T05:40:06.344Z,66.90
2023-08-07T05:42:33.750Z,66.80
2023-08-07T05:45:00.912Z,67.20
2023-08-07T05:47:28.155Z,66.40
2023-08-07T05:49:55.297Z,67.00
2023-08-07T05:52:22.493Z,65.80
2023-08-07T05:54:49.589Z,66.50
2023-08-07T05:57:16.712Z,66.30
2023-08-07T05:59:43.957Z,65.50
2023-08-07T06:02:13.904Z,65.40
2023-08-07T06:04:42.099Z,65.40
2023-08-07T06:07:09.481Z,65.00
2023-08-07T06:09:37.168Z,65.00
2023-08-07T06:12:04.692Z,64.80
2023-08-07T06:14:32.110Z,64.90
2023-08-07T06:17:01.635Z,65.00
2023-08-07T06:19:32.536Z,64.60
2023-08-07T06:22:01.343Z,65.40
2023-08-07T06:24:29.398Z,65.00
2023-08-07T06:26:56.618Z,65.00
2023-08-07T06:29:23.706Z,65.60
2023-08-07T06:31:50.871Z,64.40
2023-08-07T06:34:18.044Z,64.90
2023-08-07T06:36:45.161Z,64.50
2023-08-07T06:39:12.344Z,63.90
2023-08-07T06:41:40.431Z,64.90
2023-08-07T06:44:07.602Z,64.10
2023-08-07T06:46:34.867Z,63.50
2023-08-07T06:49:02.145Z,63.40
2023-08-07T06:51:29.330Z,64.70
2023-08-07T06:53:56.446Z,64.30
2023-08-07T06:56:23.681Z,64.40
2023-08-07T06:58:51.082Z,65.00
2023-08-07T07:01:18.308Z,64.70
2023-08-07T07:03:48.132Z,64.50
2023-08-07T07:06:15.473Z,64.70
2023-08-07T07:08:42.797Z,65.10
2023-08-07T07:11:10.542Z,65.30
2023-08-07T07:13:38.329Z,64.60
2023-08-07T07:16:05.590Z,64.00
2023-08-07T07:18:32.956Z,64.10
2023-08-07T07:21:01.530Z,64.00
2023-08-07T07:23:29.659Z,64.20
2023-08-07T07:25:58.163Z,62.40
2023-08-07T07:28:27.643Z,63.30
2023-08-07T07:30:54.932Z,62.30
2023-08-07T07:33:22.034Z,62.80
2023-08-07T07:35:49.403Z,62.00
2023-08-07T07:38:17.246Z,59.80
2023-08-07T07:40:44.540Z,58.50
2023-08-07T07:43:11.930Z,59.00
2023-08-07T07:45:39.148Z,58.40
2023-08-07T07:48:07.606Z,57.50
2023-08-07T07:50:34.874Z,56.50
2023-08-07T07:53:02.088Z,56.50
2023-08-07T07:55:29.221Z,57.80
2023-08-07T07:57:56.668Z,56.50
2023-08-07T08:00:28.160Z,56.30
2023-08-07T08:02:55.666Z,56.10
2023-08-07T08:05:23.581Z,56.90
2023-08-07T08:07:50.740Z,56.60
2023-08-07T08:10:17.965Z,56.20
2023-08-07T08:12:45.254Z,57.50
2023-08-07T08:15:12.535Z,57.00
2023-08-07T08:17:40.410Z,56.20
2023-08-07T08:20:09.145Z,56.80
2023-08-07T08:22:36.753Z,56.30
2023-08-07T08:25:05.961Z,57.00
2023-08-07T08:27:33.343Z,57.30
2023-08-07T08:30:00.733Z,56.50
2023-08-07T08:32:28.059Z,55.90
2023-08-07T08:34:55.288Z,56.20
2023-08-07T08:37:23.091Z,56.80
2023-08-07T08:39:50.526Z,57.00
2023-08-07T08:42:20.497Z,57.20
2023-08-07T08:44:55.691Z,57.50
2023-08-07T08:47:24.110Z,58.40
2023-08-07T08:49:55.421Z,59.50
2023-08-07T08:52:22.722Z,59.60
2023-08-07T08:54:50.555Z,61.10
2023-08-07T08:57:18.442Z,62.80
2023-08-07T08:59:45.817Z,64.20
2023-08-07T09:02:13.520Z,64.30
2023-08-07T09:04:42.953Z,64.30
2023-08-07T09:07:10.998Z,65.40
2023-08-07T09:09:38.489Z,65.60
2023-08-07T09:12:06.565Z,67.00
2023-08-07T09:14:37.027Z,66.00
2023-08-07T09:17:05.462Z,66.90
2023-08-07T09:19:32.722Z,66.70
2023-08-07T09:22:00.103Z,67.00
2023-08-07T09:24:28.025Z,66.60
2023-08-07T09:26:56.850Z,66.40
2023-08-07T09:29:24.194Z,66.00
2023-08-07T09:31:51.361Z,65.30
2023-08-07T09:34:21.846Z,66.10
2023-08-07T09:36:48.979Z,65.70
2023-08-07T09:39:16.218Z,65.20
2023-08-07T09:41:43.447Z,65.90
2023-08-07T09:44:14.418Z,65.20
2023-08-07T09:46:45.357Z,65.80
2023-08-07T09:49:12.657Z,65.80
2023-08-07T09:51:51.392Z,66.30
2023-08-07T09:54:18.526Z,66.70
2023-08-07T09:56:48.762Z,66.30
2023-08-07T09:59:16.064Z,66.20
2023-08-07T10:01:45.412Z,66.70
2023-08-07T10:04:16.856Z,66.20
2023-08-07T10:06:45.233Z,66.40
2023-08-07T10:09:12.391Z,65.90
2023-08-07T10:11:41.365Z,65.50
2023-08-07T10:14:10.527Z,66.00
2023-08-07T10:16:40.979Z,66.40
2023-08-07T10:19:09.528Z,65.90
2023-08-07T10:21:38.741Z,65.80
2023-08-07T10:24:06.737Z,66.20
2023-08-07T10:26:36.597Z,66.40
2023-08-07T10:29:06.875Z,66.60
2023-08-07T10:31:35.294Z,65.90
2023-08-07T10:34:02.987Z,65.80
2023-08-07T10:36:35.410Z,64.70
2023-08-07T10:39:13.944Z,64.50
2023-08-07T10:41:56.073Z,64.50
2023-08-07T10:44:24.866Z,64.60
2023-08-07T10:46:55.806Z,64.90
2023-08-07T10:49:42.366Z,65.30
2023-08-07T10:52:11.773Z,65.30
2023-08-07T10:54:50.724Z,65.60
2023-08-07T10:57:19.918Z,65.70
2023-08-07T10:59:51.831Z,65.30
2023-08-07T11:02:29.401Z,66.10
2023-08-07T11:04:57.342Z,65.80
2023-08-07T11:07:30.809Z,66.60
2023-08-07T11:09:59.866Z,66.50
2023-08-07T11:12:30.488Z,66.90
2023-08-07T11:14:58.309Z,68.10
2023-08-07T11:17:26.970Z,67.80
2023-08-07T11:19:55.878Z,68.80
2023-08-07T11:22:23.558Z,69.20
2023-08-07T11:24:52.154Z,68.90
2023-08-07T11:27:19.310Z,69.50
2023-08-07T11:29:50.106Z,69.50
2023-08-07T11:32:17.516Z,69.30
2023-08-07T11:34:54.048Z,69.30
2023-08-07T11:37:21.535Z,69.60
2023-08-07T11:39:49.581Z,69.70
2023-08-07T11:42:19.898Z,70.90
2023-08-07T11:44:47.124Z,70.40
2023-08-07T11:47:14.282Z,70.80
2023-08-07T11:49:41.529Z,71.20
2023-08-07T11:52:09.015Z,71.10
2023-08-07T11:54:36.180Z,71.30
2023-08-07T11:57:03.410Z,71.20
2023-08-07T11:59:30.663Z,71.10
2023-08-07T12:01:58.571Z,70.90
2023-08-07T12:04:25.744Z,71.10
2023-08-07T12:06:59.388Z,71.00
2023-08-07T12:09:27.498Z,71.10
2023-08-07T12:12:01.012Z,71.20
2023-08-07T12:14:32.415Z,72.00
2023-08-07T12:17:06.885Z,71.70
2023-08-07T12:19:41.723Z,72.30
2023-08-07T12:22:11.599Z,72.10
2023-08-07T12:24:39.042Z,72.10
2023-08-07T12:27:09.350Z,72.20
2023-08-07T12:29:36.695Z,72.40
2023-08-07T12:32:04.168Z,72.30
2023-08-07T12:34:36.158Z,72.30
2023-08-07T12:37:21.273Z,72.60
2023-08-07T12:44:48.741Z,72.90
2023-08-07T12:47:16.092Z,72.60
2023-08-07T12:49:43.363Z,72.80
2023-08-07T12:52:10.579Z,72.80
2023-08-07T12:54:37.721Z,73.30
2023-08-07T12:57:07.525Z,73.40
2023-08-07T12:59:34.638Z,72.80
2023-08-07T13:02:03.786Z,72.10
2023-08-07T13:04:31.002Z,72.60
2023-08-07T13:06:58.264Z,72.70
2023-08-07T13:09:25.726Z,72.80
2023-08-07T13:11:52.825Z,73.00
2023-08-07T13:14:19.910Z,73.20
2023-08-07T13:16:47.204Z,73.20
2023-08-07T13:19:14.590Z,73.30
2023-08-07T13:21:41.738Z,73.30
2023-08-07T13:24:09.025Z,73.00
2023-08-07T13:26:36.207Z,73.20
2023-08-07T13:29:03.705Z,72.30
2023-08-07T13:31:30.979Z,72.70
2023-08-07T13:34:00.875Z,72.30
2023-08-07T13:36:29.744Z,71.30
2023-08-07T13:38:57.736Z,72.00
2023-08-07T13:41:25.156Z,72.00
2023-08-07T13:43:55.399Z,69.20
2023-08-07T13:46:23.482Z,70.60
2023-08-07T13:48:50.639Z,69.30
2023-08-07T13:51:18.876Z,68.70
2023-08-07T13:53:46.046Z,68.10
2023-08-07T13:56:14.028Z,68.10
2023-08-07T13:58:41.386Z,66.40
2023-08-07T14:01:09.715Z,67.60
2023-08-07T14:03:36.963Z,66.70
2023-08-07T14:06:04.141Z,66.70
2023-08-07T14:08:34.053Z,64.70
2023-08-07T14:11:01.199Z,66.10
2023-08-07T14:13:28.484Z,65.70
2023-08-07T14:15:56.614Z,66.00
2023-08-07T14:18:25.821Z,65.10
2023-08-07T14:23:46.493Z,64.30
2023-08-07T14:26:13.919Z,64.00
2023-08-07T14:28:44.184Z,61.70
2023-08-07T14:31:11.996Z,61.60
2023-08-07T14:33:40.090Z,62.30
2023-08-07T14:36:07.831Z,62.80
2023-08-07T14:38:35.320Z,61.20
2023-08-07T14:41:23.421Z,59.60
2023-08-07T14:43:50.561Z,60.10
2023-08-07T14:46:21.643Z,60.70
2023-08-07T14:48:48.819Z,59.40
2023-08-07T14:51:16.244Z,60.60
2023-08-07T14:53:43.375Z,60.30
2023-08-07T14:56:10.683Z,59.30
2023-08-07T14:58:38.028Z,58.40
2023-08-07T15:01:08.654Z,58.50
2023-08-07T15:03:35.831Z,59.40
2023-08-07T15:06:03.210Z,59.10
2023-08-07T15:08:30.449Z,57.40
2023-08-07T15:10:57.598Z,58.40
2023-08-07T15:13:24.857Z,58.90
2023-08-07T15:15:52.033Z,58.70
2023-08-07T15:18:19.271Z,57.80
2023-08-07T15:20:49.085Z,58.00
2023-08-07T15:23:16.862Z,57.70
2023-08-07T15:25:45.584Z,57.90
2023-08-07T15:28:12.899Z,58.40
2023-08-07T15:30:39.987Z,57.40
2023-08-07T15:33:07.219Z,57.70
2023-08-07T15:35:34.530Z,58.10
2023-08-07T15:38:01.906Z,58.10
2023-08-07T15:40:29.176Z,58.40
2023-08-07T15:42:56.357Z,58.20
2023-08-07T15:45:23.696Z,58.80
2023-08-07T15:47:51.103Z,58.60
2023-08-07T15:50:18.482Z,58.80
2023-08-07T15:52:45.640Z,59.30
2023-08-07T15:55:13.001Z,58.40
2023-08-07T15:57:40.273Z,58.60
2023-08-07T16:00:08.992Z,57.50
2023-08-07T16:02:36.160Z,55.70
2023-08-07T16:05:05.446Z,52.20
2023-08-07T16:07:33.753Z,53.00
2023-08-07T16:10:00.977Z,52.10
2023-08-07T16:12:28.240Z,50.40
2023-08-07T16:14:57.302Z,48.70
2023-08-07T16:17:24.679Z,48.60
2023-08-07T16:19:51.870Z,47.90
2023-08-07T16:22:19.357Z,48.10
2023-08-07T16:24:48.779Z,47.60
2023-08-07T16:27:15.985Z,46.80
2023-08-07T16:29:43.232Z,45.40
2023-08-07T16:32:10.488Z,44.10
2023-08-07T16:34:46.310Z,44.40
2023-08-07T16:37:14.070Z,44.70
2023-08-07T16:39:41.241Z,47.20
2023-08-07T16:42:08.779Z,49.10
2023-08-07T16:44:35.986Z,48.50
2023-08-07T16:47:03.438Z,49.00
2023-08-07T16:49:30.620Z,48.70
2023-08-07T16:51:59.799Z,49.80
2023-08-07T16:54:27.660Z,50.90
2023-08-07T16:56:55.629Z,51.50
2023-08-07T16:59:22.818Z,52.20
2023-08-07T17:01:49.960Z,52.80
2023-08-07T17:04:17.352Z,53.40
2023-08-07T17:06:44.532Z,53.90
2023-08-07T17:09:12.097Z,54.30
2023-08-07T17:11:39.327Z,54.80
2023-08-07T17:14:06.435Z,55.30
2023-08-07T17:16:33.610Z,55.30
2023-08-07T17:19:00.902Z,55.90
2023-08-07T17:21:28.030Z,56.30
2023-08-07T17:23:55.259Z,56.80
2023-08-07T17:26:24.500Z,57.00
2023-08-07T17:28:57.934Z,57.00
2023-08-07T17:31:25.359Z,56.90
2023-08-07T17:33:52.562Z,58.00
2023-08-07T17:36:19.931Z,57.70
2023-08-07T17:38:49.460Z,58.00
2023-08-07T17:41:16.644Z,57.90
2023-08-07T17:43:43.779Z,58.40
2023-08-07T17:46:10.952Z,58.30
2023-08-07T17:48:38.124Z,58.90
2023-08-07T17:51:05.299Z,58.70
2023-08-07T17:53:32.485Z,59.30
2023-08-07T17:56:00.357Z,59.20
2023-08-07T17:58:27.507Z,59.30
2023-08-07T18:00:54.738Z,59.80
2023-08-07T18:03:22.038Z,59.90
2023-08-07T18:05:49.162Z,60.00
2023-08-07T18:08:17.301Z,60.00
2023-08-07T18:10:44.634Z,60.30
2023-08-07T18:13:11.800Z,60.50
2023-08-07T18:15:39.025Z,60.20
2023-08-07T18:18:06.448Z,60.90
2023-08-07T18:20:33.667Z,60.70
2023-08-07T18:23:00.891Z,60.80
2023-08-07T18:25:28.031Z,60.90
2023-08-07T18:27:55.376Z,61.30
2023-08-07T18:30:22.603Z,60.70
2023-08-07T18:32:50.065Z,61.20
2023-08-07T18:35:18.698Z,60.90
2023-08-07T18:37:45.831Z,61.20
2023-08-07T18:40:13.714Z,61.10
2023-08-07T18:42:41.113Z,61.10
2023-08-07T18:45:08.927Z,61.00
2023-08-07T18:47:36.388Z,61.20
2023-08-07T18:50:04.077Z,61.40
2023-08-07T18:52:31.310Z,61.30
2023-08-07T18:54:58.512Z,61.60
2023-08-07T18:57:25.716Z,61.60
2023-08-07T18:59:52.884Z,61.60
2023-08-07T19:02:21.354Z,61.70
2023-08-07T19:04:48.494Z,61.80
2023-08-07T19:07:15.726Z,61.90
2023-08-07T19:09:43.277Z,62.00
2023-08-07T19:12:10.452Z,62.30
2023-08-07T19:14:38.295Z,62.10
2023-08-07T19:17:08.856Z,62.10
2023-08-07T19:19:36.784Z,62.20
2023-08-07T19:22:04.918Z,62.20
2023-08-07T19:24:32.136Z,62.20
2023-08-07T19:26:59.500Z,62.10
2023-08-07T19:29:26.844Z,62.10
2023-08-07T19:31:54.048Z,62.10
2023-08-07T19:34:21.448Z,62.00
2023-08-07T19:36:51.338Z,61.80
2023-08-07T19:39:18.865Z,61.90
2023-08-07T19:41:46.105Z,62.00
2023-08-07T19:44:13.285Z,61.80
2023-08-07T19:46:40.549Z,61.80
2023-08-07T19:49:34.002Z,61.60
2023-08-07T19:52:02.172Z,61.60
2023-08-07T19:54:29.407Z,61.60
2023-08-07T19:56:56.962Z,61.70
2023-08-07T19:59:25.072Z,61.80
2023-08-07T20:01:52.212Z,62.40
2023-08-07T20:04:19.536Z,61.90
2023-08-07T20:06:46.749Z,62.00
2023-08-07T20:09:14.127Z,61.90
2023-08-07T20:11:42.471Z,61.90
2023-08-07T20:14:09.600Z,61.90
2023-08-07T20:16:36.799Z,61.80
2023-08-07T20:19:04.602Z,61.70
2023-08-07T20:21:31.764Z,61.40
2023-08-07T20:23:58.985Z,61.40
2023-08-07T20:26:26.241Z,61.70
2023-08-07T20:28:53.630Z,61.70
2023-08-07T20:31:20.802Z,61.60
2023-08-07T20:33:48.001Z,61.60
2023-08-07T20:36:15.340Z,61.70
2023-08-07T20:38:42.476Z,61.50
2023-08-07T20:41:09.662Z,61.60
2023-08-07T20:43:36.822Z,61.80
2023-08-07T20:46:04.014Z,61.80
2023-08-07T20:48:31.116Z,61.80
2023-08-07T20:50:58.245Z,61.80
2023-08-07T20:53:25.404Z,61.80
2023-08-07T20:55:52.734Z,61.80
2023-08-07T20:58:19.871Z,61.80
2023-08-07T21:00:47.091Z,61.80
2023-08-07T21:03:14.423Z,62.10
2023-08-07T21:05:41.674Z,62.00
2023-08-07T21:08:08.889Z,62.20
2023-08-07T21:10:36.023Z,62.50
2023-08-07T21:13:03.206Z,62.40
2023-08-07T21:15:30.438Z,62.50
2023-08-07T21:17:58.668Z,63.10
2023-08-07T21:20:26.402Z,62.70
2023-08-07T21:22:54.438Z,62.90
2023-08-07T21:25:21.831Z,63.30
2023-08-07T21:27:49.010Z,63.20
2023-08-07T21:30:16.229Z,63.30
2023-08-07T21:32:45.261Z,63.80
2023-08-07T21:35:13.030Z,64.30
2023-08-07T21:37:41.397Z,64.30
2023-08-07T21:40:12.547Z,64.50
2023-08-07T21:42:39.812Z,65.60
2023-08-07T21:45:07.801Z,65.70
2023-08-07T21:47:36.060Z,65.60
2023-08-07T21:50:03.582Z,65.40
2023-08-07T21:52:30.813Z,65.90
2023-08-07T21:54:58.038Z,66.80
2023-08-07T21:57:25.257Z,66.60
2023-08-07T21:59:52.511Z,67.20
2023-08-07T22:02:19.636Z,66.40
2023-08-07T22:04:46.839Z,67.00
2023-08-07T22:07:14.067Z,68.00
2023-08-07T22:09:41.315Z,68.30
2023-08-07T22:12:08.924Z,68.20
2023-08-07T22:14:36.111Z,68.10
2023-08-07T22:17:03.600Z,68.80
2023-08-07T22:19:30.774Z,68.90
2023-08-07T22:21:58.027Z,69.10
2023-08-07T22:24:25.368Z,69.20
2023-08-07T22:26:52.594Z,69.70
2023-08-07T22:29:19.744Z,70.00
2023-08-07T22:31:46.914Z,69.70
2023-08-07T22:34:14.199Z,69.60
2023-08-07T22:36:41.581Z,69.90
2023-08-07T22:39:08.843Z,69.80
2023-08-07T22:41:35.854Z,69.30
2023-08-07T22:44:03.030Z,69.60
2023-08-07T22:46:30.298Z,69.60
2023-08-07T22:48:57.502Z,69.60
2023-08-07T22:51:25.005Z,69.80
2023-08-07T22:53:52.196Z,70.00
2023-08-07T22:56:19.408Z,70.30
2023-08-07T22:58:47.529Z,70.30
2023-08-07T23:01:14.875Z,70.40
2023-08-07T23:03:43.326Z,70.10
2023-08-07T23:06:11.512Z,70.10
2023-08-07T23:08:38.643Z,70.10
2023-08-07T23:11:05.840Z,69.90
2023-08-07T23:13:33.013Z,70.00
2023-08-07T23:16:00.357Z,70.00
2023-08-07T23:18:27.502Z,70.00
2023-08-07T23:20:54.728Z,70.40
2023-08-07T23:23:21.906Z,70.30
2023-08-07T23:25:49.012Z,70.50
2023-08-07T23:28:16.160Z,70.30
2023-08-07T23:30:43.326Z,70.40
2023-08-07T23:33:10.684Z,70.30
2023-08-07T23:35:37.820Z,70.30
2023-08-07T23:38:05.136Z,70.10
2023-08-07T23:40:32.265Z,70.30
2023-08-07T23:42:59.383Z,70.10
2023-08-07T23:45:26.671Z,70.40
2023-08-07T23:47:53.856Z,70.30
2023-08-07T23:50:21.369Z,70.30
2023-08-07T23:52:48.655Z,70.40
2023-08-07T23:55:16.015Z,70.60
2023-08-07T23:57:43.605Z,70.90
